Fadime K — TCCT2 — position and weather

sailwx.info

Track history (hours):
 
Tides and Currents Weather Stations Pressure Air Temp Water Temp Dewpoint Dewpoint Depression Visibility Wind Speed Wind Dir Waves Ship Positions

Fadime K

Last reported at 2018-Jul-15 11:05 UTC. Time now 2018-Jul-16 17:59 UTC.
Position N 38°04' E 022°43'.

Length 72 m; draft 5.5 m.

Type: Cargo ship. MMSI: 271002318.

Date/timePositionNaut miles runAvg speedWind from/ knotsBaromVisibWave heightAir tempDewpointWater temp
2018-Jul-15 11:05N 38°04' E 022°43'1 8.9
2018-Jul-15 11:00N 38°04' E 022°43'5 8.7
2018-Jul-15 10:25N 38°01' E 022°49'4 8.5
2018-Jul-15 10:00N 37°59' E 022°53'4 8.1
2018-Jul-15 09:30N 37°57' E 022°57'3 5.4
2018-Jul-15 08:57N 37°55' E 023°00'3 6.2
2018-Jul-15 08:30N 37°54' E 023°03'4 8.9
2018-Jul-15 08:00N 37°53' E 023°09'4 8.5
2018-Jul-15 07:30N 37°53' E 023°14'4 8.7
2018-Jul-15 07:00N 37°52' E 023°20'4 8.7
2018-Jul-15 06:30N 37°51' E 023°25'4 8.6
2018-Jul-15 06:00N 37°50' E 023°30'4 8.5
2018-Jul-15 05:30N 37°50' E 023°36'4 7.8
2018-Jul-15 05:00N 37°48' E 023°40'4 8.2
2018-Jul-15 04:30N 37°45' E 023°43'4 8.2
2018-Jul-15 04:00N 37°41' E 023°46'  
2018-Jul-11 09:57N 38°04' E 024°11'5 9.4
2018-Jul-11 09:27N 38°08' E 024°09'19 9.3
2018-Jul-11 07:26N 38°20' E 023°51'  
2018-Jul-07 10:48N 38°21' E 023°47'20 8.6
2018-Jul-07 08:27N 38°10' E 024°08'5 8.4
2018-Jul-07 07:49N 38°05' E 024°11'3 8.3
2018-Jul-07 07:28N 38°02' E 024°12'  
Track history (hours):
 
Tides and Currents Weather Stations Pressure Air Temp Water Temp Dewpoint Dewpoint Depression Visibility Wind Speed Wind Dir Waves Ship Positions

Fadime K

Last reported at 2018-Jul-15 11:05 UTC. Time now 2018-Jul-16 17:59 UTC.
Position N 38°04' E 022°43'.

Length 72 m; draft 5.5 m.

Type: Cargo ship. MMSI: 271002318.

Date/timePositionNaut miles runAvg speedWind from/ knotsBaromVisibWave heightAir tempDewpointWater temp
2018-Jul-15 11:05N 38°04' E 022°43'1 8.9
2018-Jul-15 11:00N 38°04' E 022°43'5 8.7
2018-Jul-15 10:25N 38°01' E 022°49'4 8.5
2018-Jul-15 10:00N 37°59' E 022°53'4 8.1
2018-Jul-15 09:30N 37°57' E 022°57'3 5.4
2018-Jul-15 08:57N 37°55' E 023°00'3 6.2
2018-Jul-15 08:30N 37°54' E 023°03'4 8.9
2018-Jul-15 08:00N 37°53' E 023°09'4 8.5
2018-Jul-15 07:30N 37°53' E 023°14'4 8.7
2018-Jul-15 07:00N 37°52' E 023°20'4 8.7
2018-Jul-15 06:30N 37°51' E 023°25'4 8.6
2018-Jul-15 06:00N 37°50' E 023°30'4 8.5
2018-Jul-15 05:30N 37°50' E 023°36'4 7.8
2018-Jul-15 05:00N 37°48' E 023°40'4 8.2
2018-Jul-15 04:30N 37°45' E 023°43'4 8.2
2018-Jul-15 04:00N 37°41' E 023°46'  
2018-Jul-11 09:57N 38°04' E 024°11'5 9.4
2018-Jul-11 09:27N 38°08' E 024°09'19 9.3
2018-Jul-11 07:26N 38°20' E 023°51'  
2018-Jul-07 10:48N 38°21' E 023°47'20 8.6
2018-Jul-07 08:27N 38°10' E 024°08'5 8.4
2018-Jul-07 07:49N 38°05' E 024°11'3 8.3
2018-Jul-07 07:28N 38°02' E 024°12'  

Dump ship's entire track history